Pagrindinis puslapis
METAR-TAF:

METAR-TAF

Oro uostai :

Vilhena, Rondônia, Brazilija

platuma: 12-42S, ilguma: 060-06W, Aukštis: 612 m

Dabartinis oras

Ataskaita buvo paskelbta 10 valandos ir 32 minutes, ne 23:00 UTC
Vėjas 4 kt iš Rytų
Temperatūra 24°C
Drėgmė 83%
Slėgis 1015 hPa
Matomumas 10 km arba daugiau
nėra debesų žemiau 1500 m ir nėra kamuolinių lietaus debesų

METAR: SBVH 302300Z 08004KT CAVOK 24/21 Q1015

Laikas: 05:32 (09:32 UTC)

Prognozė

Ataskaita buvo paskelbta 6 valandos ir 32 minutes, ne 03:00 UTC
Prognozė galioja nuo 31 metu 06 UTC su 31 metu 18 UTC
Vėjas 5 kt iš Šiaurės Rytų
Matomumas 10 km arba daugiau
nėra debesų žemiau 1500 m ir nėra kamuolinių lietaus debesų
Tapsmas
nuo 31 metu 09 UTC su 31 metu 11 UTC
Vėjas 5 kt iš Rytų
Tapsmas
nuo 31 metu 15 UTC su 31 metu 17 UTC
Vėjas 8 kt iš Šiaurės Rytų
Išsisklaidę debesys ne aukštis 3500 ft

TAF: SBVH 310300Z 3106/3118 04005KT CAVOK TN20/3108Z TX29/3117Z BECMG 3109/3111 08005KT BECMG 3115/3117 05008KT SCT035 RMK PEH

Orai ataskaitas ir orų prognozės (METAR, TAF).

turimą stotys yra geltonos ir raudonos taškus žemėlapyje.

Perkelti pele per norėdami pamatyti stoties vardą.

Tada spustelėkite, norėdami matyti oro stebėjimo ir prognozės.

Norėdami pakeisti žemėlapį: spustelėkite ant žalios mygtukų su juodo kryžiaus žemyn,; žalią mygtuką su brūkšneliu, jei norite nutolinti; arba žalių rodyklių gretimoms žemėlapius.


METAR-TAF: